Impacts METAR Board
IDs:

KLAS - Las Vegas/McCarran I, NV, US

Updated at: 1300 UTC 16 Sep 2019
Potential Impact None Slight Moderate High
Time 16/01Z 16/02Z 16/03Z 16/04Z 16/05Z 16/06Z 16/07Z 16/08Z 16/09Z 16/10Z 16/11Z 16/12Z 16/13Z
Temp97 95 93 92 91 89 89 87 85 83 83 82 81
Dewpt40 42 42 45 44 37 25 27 29 29 31 32 32
Altim29.77 29.77 29.79 29.80 29.80 29.81 29.81 29.81 29.82 29.81 29.82 29.82 29.84
VIS10 10 10 10 10 10 10 10 10 10 10 10 10
CIG250 250 250 250 240 220 210 210 240 240 230 220 220
CoverBKNBKNBKNBKNBKNBKNBKNOVCOVCOVCOVCBKNBKN
FltCatVFRVFRVFRVFRVFRVFRVFRVFRVFRVFRVFRVFRVFR
WX--------------------------
WDir250250200180180200220220200180220180180
WSpd14 12 6 6 8 6 9 12 7 6 9 10 7
WGst22 -- -- -- -- -- 17 20 -- -- 17 18 --
Raw hourly METARs
KLAS 160056Z 25014G22KT 10SM FEW120 FEW180 BKN250 36/04 A2977 RMK AO2 SLP052 T03610044
KLAS 160156Z 25012KT 10SM FEW120 FEW180 BKN250 35/06 A2977 RMK AO2 SLP055 T03500056
KLAS 160256Z 20006KT 10SM FEW120 BKN250 34/06 A2979 RMK AO2 SLP058 T03390056 53006
KLAS 160356Z 18006KT 10SM FEW120 BKN250 33/07 A2980 RMK AO2 SLP062 T03330072
KLAS 160456Z 18008KT 10SM FEW120 BKN240 33/07 A2980 RMK AO2 SLP060 T03280067
KLAS 160556Z 20006KT 10SM BKN220 32/03 A2981 RMK AO2 SLP062 T03170028 10378 20317 51006
KLAS 160656Z 22009G17KT 10SM BKN210 32/M04 A2981 RMK AO2 SLP062 T03171039
KLAS 160756Z 22012G20KT 10SM OVC210 31/M03 A2981 RMK AO2 SLP064 T03061028 403890239
KLAS 160856Z 20007KT 10SM FEW200 OVC240 29/M02 A2982 RMK AO2 SLP066 T02941017 53005
KLAS 160956Z 18006KT 10SM FEW200 OVC240 28/M02 A2981 RMK AO2 SLP065 T02831017
KLAS 161056Z 22009G17KT 10SM OVC230 28/M01 A2982 RMK AO2 SLP066 T02831006
KLAS 161156Z 18010G18KT 10SM BKN220 28/00 A2982 RMK AO2 SLP065 T02780000 10317 20278 56002
KLAS 161256Z 18007KT 10SM BKN220 27/00 A2984 RMK AO2 SLP074 T02720000



Page loaded:  13:22 UTC  |   06:22 AM Pacific  |   07:22 AM Mountain  |   08:22 AM Central  |   09:22 AM Eastern

 

ADVISORIES

FORECASTS

FORECASTS

OBSERVATIONS

USER TOOLS

ABOUT US